Time;durP1;ratioP1;P1;durP2;ratioP2;P2;SDS_P1;SDS_P2;PMS_P1;PMS_P2;Temp;Humidity;BMP_temperature;BMP_pressure;BME280_temperature;BME280_humidity;BME280_pressure;Samples;Min_cycle;Max_cycle;Signal;HPM_P1;HPM_P2
2023/03/08 00:00:06;;;;;;;;;;;;;;;5.90;46.45;98502.19;1089257;46;19934;-81
2023/03/08 00:01:17;;;;;;;;;;;;;;;5.90;46.25;98512.81;1088401;54;19950;-81
2023/03/08 00:02:18;;;;;;;;;;;;;;;5.86;46.39;98500.81;1096269;39;20329;-82
2023/03/08 00:06:24;;;;;;;;;;;;;;;5.95;46.29;98502.59;1088356;54;19926;-80
2023/03/08 00:07:34;;;;;;;;;;;;;;;5.85;46.42;98507.16;1088855;46;19954;-82
2023/03/08 00:08:38;;;;;;;;;;;;;;;5.89;46.55;98501.38;1088286;54;19927;-80
2023/03/08 00:09:40;;;;;;;;;;;;;;;5.87;46.63;98506.00;1088129;54;19945;-81
2023/03/08 00:12:24;;;;;;;;;;;;;;;5.93;46.65;98512.50;1088296;54;19945;-82
2023/03/08 00:13:28;;;;;;;;;;;;;;;5.91;46.50;98512.66;1088312;54;19975;-84
2023/03/08 00:14:52;;;;;;;;;;;;;;;5.92;46.58;98503.72;1088006;54;19946;-81
2023/03/08 00:15:58;;;;;;;;;;;;;;;5.94;46.69;98515.00;1087822;54;19939;-80
2023/03/08 00:17:03;;;;;;;;;;;;;;;6.01;46.48;98511.75;1087090;54;19998;-80
2023/03/08 00:18:04;;;;;;;;;;;;;;;6.06;46.57;98507.66;1086685;54;19946;-79
2023/03/08 00:19:28;;;;;;;;;;;;;;;5.94;46.34;98511.53;1087378;54;19947;-81
2023/03/08 00:20:32;;;;;;;;;;;;;;;5.94;46.61;98506.22;1088222;54;19927;-80
2023/03/08 00:21:36;;;;;;;;;;;;;;;5.95;46.60;98515.84;1091670;46;19939;-80
2023/03/08 00:22:40;;;;;;;;;;;;;;;5.88;46.91;98509.47;1086651;54;19951;-80
2023/03/08 00:23:47;;;;;;;;;;;;;;;5.92;46.83;98514.31;1087120;54;19946;-81
2023/03/08 00:24:49;;;;;;;;;;;;;;;5.91;46.85;98517.94;1086700;54;19969;-81
2023/03/08 00:25:53;;;;;;;;;;;;;;;5.93;46.60;98507.22;1086131;39;20364;-81
2023/03/08 00:26:57;;;;;;;;;;;;;;;5.91;46.75;98511.81;1085795;54;19951;-80
2023/03/08 00:27:58;;;;;;;;;;;;;;;5.91;46.58;98511.81;1085550;54;19951;-80
2023/03/08 00:29:05;;;;;;;;;;;;;;;5.95;46.92;98507.91;1086074;54;20445;-79
2023/03/08 00:30:07;;;;;;;;;;;;;;;5.93;46.77;98515.16;1085859;54;19946;-79
2023/03/08 00:31:13;;;;;;;;;;;;;;;5.96;46.89;98514.03;1085791;54;19957;-80
2023/03/08 00:32:17;;;;;;;;;;;;;;;5.92;46.87;98513.50;1085661;54;19946;-80
2023/03/08 00:33:21;;;;;;;;;;;;;;;5.86;47.08;98516.75;1086729;54;19942;-80
2023/03/08 00:34:23;;;;;;;;;;;;;;;5.84;47.13;98511.59;1085427;39;20326;-79
2023/03/08 00:35:26;;;;;;;;;;;;;;;5.85;46.90;98509.78;1084449;54;19954;-80
2023/03/08 00:36:36;;;;;;;;;;;;;;;5.87;47.02;98518.41;1083845;54;19951;-82
2023/03/08 00:37:39;;;;;;;;;;;;;;;5.90;47.09;98515.47;1085246;54;19969;-80
2023/03/08 00:38:53;;;;;;;;;;;;;;;5.86;47.18;98516.75;1085633;54;19950;-78
2023/03/08 00:39:58;;;;;;;;;;;;;;;5.89;47.09;98513.78;1085605;54;19945;-80
2023/03/08 00:41:01;;;;;;;;;;;;;;;5.82;47.35;98512.75;1085892;54;19945;-78
2023/03/08 00:42:05;;;;;;;;;;;;;;;5.86;47.30;98517.59;1086325;39;20330;-79
2023/03/08 00:43:10;;;;;;;;;;;;;;;5.92;47.17;98510.84;1086316;54;20010;-80
2023/03/08 00:44:19;;;;;;;;;;;;;;;5.84;47.44;98510.78;1086759;54;20728;-81
2023/03/08 00:45:20;;;;;;;;;;;;;;;5.82;47.43;98512.75;1085938;54;19977;-80
2023/03/08 00:46:26;;;;;;;;;;;;;;;5.85;47.44;98512.44;1086166;54;19943;-80
2023/03/08 00:47:28;;;;;;;;;;;;;;;5.88;47.32;98504.16;1086623;54;19947;-81
2023/03/08 00:48:31;;;;;;;;;;;;;;;5.73;47.46;98504.72;1086668;54;19953;-81
2023/03/08 00:49:36;;;;;;;;;;;;;;;5.75;47.58;98508.06;1086692;54;19946;-81
2023/03/08 00:50:40;;;;;;;;;;;;;;;5.80;47.50;98507.59;1086861;54;19946;-80
2023/03/08 00:51:41;;;;;;;;;;;;;;;5.84;47.29;98501.00;1087211;54;19943;-81
2023/03/08 00:52:45;;;;;;;;;;;;;;;5.73;47.27;98499.41;1086676;54;20524;-80
2023/03/08 00:53:46;;;;;;;;;;;;;;;5.71;47.77;98492.59;1086176;54;19965;-79
2023/03/08 00:54:50;;;;;;;;;;;;;;;5.76;47.41;98496.44;1086332;54;19949;-82
2023/03/08 00:55:52;;;;;;;;;;;;;;;5.82;47.53;98491.53;1087018;54;19947;-80
2023/03/08 00:56:56;;;;;;;;;;;;;;;5.81;47.66;98492.50;1085985;54;19957;-82
2023/03/08 00:57:58;;;;;;;;;;;;;;;5.77;47.57;98484.03;1085905;54;20522;-81
2023/03/08 00:59:02;;;;;;;;;;;;;;;5.86;47.52;98487.56;1085584;54;19957;-82
2023/03/08 01:00:11;;;;;;;;;;;;;;;5.81;47.35;98481.91;1085992;54;19946;-82
2023/03/08 01:01:16;;;;;;;;;;;;;;;5.86;47.28;98492.88;1086725;54;19950;-81
2023/03/08 01:02:17;;;;;;;;;;;;;;;5.91;47.65;98488.78;1086428;54;19950;-81
2023/03/08 01:03:21;;;;;;;;;;;;;;;5.76;47.51;98488.47;1086374;54;19954;-82
2023/03/08 01:04:31;;;;;;;;;;;;;;;5.77;47.81;98484.84;1087345;39;20314;-82
2023/03/08 01:05:35;;;;;;;;;;;;;;;5.85;47.50;98488.56;1086703;47;19938;-81
2023/03/08 01:06:37;;;;;;;;;;;;;;;5.75;47.90;98484.19;1087529;54;19961;-83
2023/03/08 01:07:40;;;;;;;;;;;;;;;5.71;47.86;98490.75;1087002;54;19938;-81
2023/03/08 01:08:49;;;;;;;;;;;;;;;5.69;47.89;98489.25;1087166;54;19946;-82
2023/03/08 01:09:55;;;;;;;;;;;;;;;5.76;47.87;98488.47;1086704;54;19954;-79
2023/03/08 01:10:58;;;;;;;;;;;;;;;5.73;47.92;98488.81;1086746;54;19957;-81
2023/03/08 01:12:02;;;;;;;;;;;;;;;5.70;48.16;98477.66;1086405;54;19946;-77
2023/03/08 01:13:05;;;;;;;;;;;;;;;5.62;48.17;98473.13;1086023;54;19958;-80
2023/03/08 01:14:15;;;;;;;;;;;;;;;5.66;48.26;98477.16;1086479;54;19939;-80
2023/03/08 01:15:19;;;;;;;;;;;;;;;5.71;48.31;98480.16;1086300;54;19958;-81
2023/03/08 01:16:24;;;;;;;;;;;;;;;5.78;48.05;98475.91;1086290;54;19981;-80
2023/03/08 01:17:25;;;;;;;;;;;;;;;5.82;47.87;98478.25;1086401;47;19938;-81
2023/03/08 01:18:29;;;;;;;;;;;;;;;5.68;48.52;98477.81;1085909;54;19951;-81
2023/03/08 01:19:39;;;;;;;;;;;;;;;5.76;48.20;98472.56;1086572;54;19947;-80
2023/03/08 01:20:43;;;;;;;;;;;;;;;5.76;48.21;98467.25;1086527;54;19968;-80
2023/03/08 01:21:56;;;;;;;;;;;;;;;5.73;48.34;98475.53;1087502;54;19942;-82
2023/03/08 01:22:58;;;;;;;;;;;;;;;5.65;48.81;98472.81;1087964;54;19949;-81
2023/03/08 01:24:02;;;;;;;;;;;;;;;5.62;48.81;98465.16;1091028;39;20635;-82
2023/03/08 01:25:03;;;;;;;;;;;;;;;5.67;48.74;98467.34;1087406;39;20440;-81
2023/03/08 01:26:09;;;;;;;;;;;;;;;5.71;48.42;98466.09;1086185;54;19947;-80
2023/03/08 01:27:10;;;;;;;;;;;;;;;5.72;48.32;98465.91;1086598;39;20428;-81
2023/03/08 01:28:16;;;;;;;;;;;;;;;5.69;48.51;98468.03;1086269;54;19946;-80
2023/03/08 01:29:17;;;;;;;;;;;;;;;5.64;48.79;98479.09;1086475;39;20330;-80
2023/03/08 01:30:34;;;;;;;;;;;;;;;5.63;48.85;98472.94;1086397;54;19977;-81
2023/03/08 01:31:35;;;;;;;;;;;;;;;5.58;48.89;98471.75;1086017;54;19954;-80
2023/03/08 01:32:39;;;;;;;;;;;;;;;5.60;48.98;98475.94;1086272;54;19947;-80
2023/03/08 01:33:40;;;;;;;;;;;;;;;5.59;48.88;98470.75;1086941;54;20007;-81
2023/03/08 01:34:44;;;;;;;;;;;;;;;5.55;48.99;98469.41;1087665;39;20407;-81
2023/03/08 01:35:51;;;;;;;;;;;;;;;5.42;49.52;98467.97;1086627;54;19965;-80
2023/03/08 01:36:55;;;;;;;;;;;;;;;5.40;49.58;98459.31;1086899;54;19954;-81
2023/03/08 01:37:57;;;;;;;;;;;;;;;5.36;49.84;98463.25;1086632;54;19946;-81
2023/03/08 01:39:03;;;;;;;;;;;;;;;5.45;49.53;98462.38;1086827;39;20426;-80
2023/03/08 01:40:05;;;;;;;;;;;;;;;5.50;49.54;98461.06;1084884;54;19945;-78
2023/03/08 01:41:09;;;;;;;;;;;;;;;5.51;49.31;98462.72;1084586;54;19946;-80
2023/03/08 01:42:10;;;;;;;;;;;;;;;5.54;49.59;98457.13;1084740;54;20451;-80
2023/03/08 01:43:24;;;;;;;;;;;;;;;5.55;49.31;98458.81;1084531;54;19950;-80
2023/03/08 01:44:26;;;;;;;;;;;;;;;5.52;49.50;98451.16;1085684;39;20337;-79
2023/03/08 01:45:44;;;;;;;;;;;;;;;5.54;49.31;98454.47;1084757;54;20619;-81
2023/03/08 01:46:51;;;;;;;;;;;;;;;5.59;49.20;98454.84;1084767;46;19947;-80
2023/03/08 01:47:53;;;;;;;;;;;;;;;5.44;49.34;98442.13;1084458;54;19957;-81
2023/03/08 01:49:01;;;;;;;;;;;;;;;5.51;49.44;98446.81;1084463;54;19950;-80
2023/03/08 01:50:05;;;;;;;;;;;;;;;5.52;49.70;98443.19;1084481;54;19973;-80
2023/03/08 01:51:09;;;;;;;;;;;;;;;5.52;49.62;98443.19;1084765;54;19946;-80
2023/03/08 01:52:14;;;;;;;;;;;;;;;5.55;49.43;98442.91;1085052;39;20320;-80
2023/03/08 01:53:16;;;;;;;;;;;;;;;5.55;49.33;98442.91;1084477;54;19946;-79
2023/03/08 01:54:22;;;;;;;;;;;;;;;5.50;49.73;98438.06;1084488;54;19950;-79
2023/03/08 01:55:23;;;;;;;;;;;;;;;5.52;49.62;98437.88;1084791;54;20519;-79
2023/03/08 01:56:28;;;;;;;;;;;;;;;5.52;49.51;98438.75;1084620;54;19947;-80
2023/03/08 01:57:32;;;;;;;;;;;;;;;5.57;49.45;98436.47;1084460;54;19969;-79
2023/03/08 01:58:36;;;;;;;;;;;;;;;5.48;49.36;98434.72;1084524;54;19947;-79
2023/03/08 01:59:37;;;;;;;;;;;;;;;5.49;49.58;98431.09;1084648;54;20006;-80
2023/03/08 02:00:41;;;;;;;;;;;;;;;5.44;49.75;98428.03;1084457;54;19985;-79
2023/03/08 02:01:42;;;;;;;;;;;;;;;5.43;49.67;98429.88;1084901;39;20345;-79
2023/03/08 02:02:56;;;;;;;;;;;;;;;5.46;49.90;98434.03;1084484;54;19954;-79
2023/03/08 02:03:57;;;;;;;;;;;;;;;5.41;50.07;98434.47;1084582;54;19947;-81
2023/03/08 02:05:10;;;;;;;;;;;;;;;5.41;49.94;98434.47;1084761;54;19999;-78
2023/03/08 02:06:12;;;;;;;;;;;;;;;5.44;49.98;98433.34;1084394;54;19958;-79
2023/03/08 02:07:15;;;;;;;;;;;;;;;5.44;50.15;98426.25;1084739;54;19954;-80
2023/03/08 02:08:17;;;;;;;;;;;;;;;5.44;50.01;98431.53;1083899;54;19968;-79
2023/03/08 02:09:24;;;;;;;;;;;;;;;5.44;49.97;98431.53;1085394;39;20348;-79
2023/03/08 02:10:26;;;;;;;;;;;;;;;5.41;50.21;98431.84;1084581;54;19946;-80
2023/03/08 02:11:30;;;;;;;;;;;;;;;5.42;50.08;98432.69;1084440;54;19946;-79
2023/03/08 02:12:32;;;;;;;;;;;;;;;5.38;50.30;98432.16;1086467;39;20310;-80
2023/03/08 02:13:37;;;;;;;;;;;;;;;5.41;50.07;98431.84;1084690;54;19969;-79
2023/03/08 02:14:39;;;;;;;;;;;;;;;5.38;49.96;98433.94;1084797;54;19954;-80
2023/03/08 02:15:43;;;;;;;;;;;;;;;5.29;50.48;98430.41;1084518;54;19953;-80
2023/03/08 02:16:44;;;;;;;;;;;;;;;5.43;50.05;98434.34;1084624;54;19938;-80
2023/03/08 02:17:47;;;;;;;;;;;;;;;5.38;50.33;98424.19;1084751;54;20057;-79
2023/03/08 02:18:56;;;;;;;;;;;;;;;5.35;50.33;98426.28;1084386;54;19965;-79
2023/03/08 02:20:04;;;;;;;;;;;;;;;5.31;50.45;98421.31;1084630;54;19953;-81
2023/03/08 02:21:06;;;;;;;;;;;;;;;5.38;50.18;98416.25;1085249;54;19943;-78
2023/03/08 02:22:11;;;;;;;;;;;;;;;5.30;50.17;98426.75;1085351;54;19974;-80
2023/03/08 02:23:15;;;;;;;;;;;;;;;5.26;50.21;98425.41;1084921;54;19992;-82
2023/03/08 02:24:20;;;;;;;;;;;;;;;5.22;50.38;98418.72;1085121;54;19953;-79
2023/03/08 02:25:22;;;;;;;;;;;;;;;5.18;50.10;98414.72;1085174;54;20006;-79
2023/03/08 02:26:26;;;;;;;;;;;;;;;5.16;49.90;98417.50;1085201;54;20066;-80
2023/03/08 02:27:28;;;;;;;;;;;;;;;5.11;49.83;98403.88;1085123;54;19946;-81
2023/03/08 02:28:32;;;;;;;;;;;;;;;5.12;49.83;98405.56;1085141;54;19959;-80
2023/03/08 02:29:33;;;;;;;;;;;;;;;5.23;49.64;98404.50;1085258;54;19954;-80
2023/03/08 02:30:39;;;;;;;;;;;;;;;5.31;49.44;98400.13;1085450;54;19946;-80
2023/03/08 02:31:40;;;;;;;;;;;;;;;5.14;49.66;98398.31;1085178;54;19955;-80
2023/03/08 02:32:44;;;;;;;;;;;;;;;5.08;49.73;98405.03;1085031;54;19954;-79
2023/03/08 02:33:46;;;;;;;;;;;;;;;5.04;49.86;98395.69;1085170;54;19951;-79
2023/03/08 02:34:49;;;;;;;;;;;;;;;5.12;49.65;98394.97;1085309;54;19973;-81
2023/03/08 02:35:51;;;;;;;;;;;;;;;5.05;49.46;98399.19;1085285;54;19946;-80
2023/03/08 02:36:55;;;;;;;;;;;;;;;4.98;49.64;98394.47;1085219;54;19958;-81
2023/03/08 02:37:56;;;;;;;;;;;;;;;4.96;49.94;98395.63;1085207;54;19947;-79
2023/03/08 02:39:02;;;;;;;;;;;;;;;4.90;49.79;98399.69;1085135;54;19947;-82
2023/03/08 02:40:04;;;;;;;;;;;;;;;4.89;49.83;98394.56;1085055;54;20417;-80
2023/03/08 02:41:08;;;;;;;;;;;;;;;4.90;50.02;98397.03;1085878;54;19965;-80
2023/03/08 02:42:10;;;;;;;;;;;;;;;4.91;49.80;98387.31;1085938;54;19950;-79
2023/03/08 02:43:15;;;;;;;;;;;;;;;4.85;50.02;98394.03;1085990;54;19938;-79
2023/03/08 02:44:17;;;;;;;;;;;;;;;4.88;50.10;98384.94;1086029;54;20516;-79
2023/03/08 02:45:21;;;;;;;;;;;;;;;4.71;50.09;98390.06;1085669;54;19961;-79
2023/03/08 02:46:31;;;;;;;;;;;;;;;4.73;49.97;98388.06;1086115;54;19949;-79
2023/03/08 02:47:32;;;;;;;;;;;;;;;4.76;49.86;98382.50;1086269;54;19957;-79
2023/03/08 02:48:36;;;;;;;;;;;;;;;4.69;50.12;98384.06;1085757;54;19938;-80
2023/03/08 02:49:38;;;;;;;;;;;;;;;4.73;50.28;98382.78;1086311;54;19973;-81
2023/03/08 02:50:42;;;;;;;;;;;;;;;4.63;50.41;98389.97;1086520;54;19938;-81
2023/03/08 02:51:43;;;;;;;;;;;;;;;4.58;50.47;98387.72;1086999;54;19946;-80
2023/03/08 02:52:47;;;;;;;;;;;;;;;4.62;50.50;98383.00;1087320;54;19951;-79
2023/03/08 02:53:49;;;;;;;;;;;;;;;4.70;50.55;98372.50;1087821;39;20679;-82
2023/03/08 02:54:56;;;;;;;;;;;;;;;4.69;50.34;98374.31;1086594;54;19957;-81
2023/03/08 02:56:02;;;;;;;;;;;;;;;4.75;50.14;98378.19;1086819;54;19950;-81
2023/03/08 02:57:03;;;;;;;;;;;;;;;4.70;50.30;98377.81;1086140;54;20477;-81
2023/03/08 02:58:11;;;;;;;;;;;;;;;4.72;50.43;98386.44;1086395;54;19939;-80
2023/03/08 02:59:12;;;;;;;;;;;;;;;4.78;50.39;98369.94;1086137;54;19946;-80
2023/03/08 03:00:17;;;;;;;;;;;;;;;4.86;49.88;98369.22;1086144;54;19968;-79
2023/03/08 03:01:18;;;;;;;;;;;;;;;4.90;49.88;98369.75;1087747;39;20373;-80
2023/03/08 03:02:22;;;;;;;;;;;;;;;4.83;49.98;98370.31;1087817;54;20010;-81
2023/03/08 03:03:23;;;;;;;;;;;;;;;4.87;50.18;98364.75;1088534;46;19966;-83
2023/03/08 03:04:36;;;;;;;;;;;;;;;4.89;50.21;98370.72;1088272;54;19927;-81
2023/03/08 03:05:40;;;;;;;;;;;;;;;4.76;50.47;98363.97;1087666;54;19950;-81
2023/03/08 03:06:45;;;;;;;;;;;;;;;4.76;50.44;98366.59;1086683;54;20007;-78
2023/03/08 03:07:46;;;;;;;;;;;;;;;4.71;50.42;98371.53;1087077;54;19957;-80
2023/03/08 03:08:49;;;;;;;;;;;;;;;4.82;50.15;98373.94;1086125;54;20002;-79
2023/03/08 03:09:53;;;;;;;;;;;;;;;4.83;50.50;98374.78;1085757;54;20448;-79
2023/03/08 03:10:57;;;;;;;;;;;;;;;4.81;50.52;98377.59;1085583;54;20520;-79
2023/03/08 03:11:58;;;;;;;;;;;;;;;4.72;50.77;98367.06;1085612;54;19930;-80
2023/03/08 03:13:07;;;;;;;;;;;;;;;4.80;50.54;98370.63;1086093;54;19950;-80
2023/03/08 03:14:12;;;;;;;;;;;;;;;4.86;50.26;98369.22;1086063;54;19947;-79
2023/03/08 03:15:16;;;;;;;;;;;;;;;4.88;50.37;98372.53;1085830;54;19946;-79
2023/03/08 03:16:17;;;;;;;;;;;;;;;4.90;50.49;98369.75;1085740;54;19946;-81
2023/03/08 03:17:21;;;;;;;;;;;;;;;4.87;50.50;98370.84;1086801;54;19947;-82
2023/03/08 03:18:23;;;;;;;;;;;;;;;4.88;50.55;98358.47;1087379;54;20861;-79
2023/03/08 03:19:26;;;;;;;;;;;;;;;4.81;50.84;98361.72;1087308;54;19958;-81
2023/03/08 03:20:28;;;;;;;;;;;;;;;4.74;50.94;98355.31;1086902;54;19946;-81
2023/03/08 03:21:32;;;;;;;;;;;;;;;4.66;51.12;98360.53;1087141;54;20453;-81
2023/03/08 03:22:33;;;;;;;;;;;;;;;4.67;51.02;98359.56;1087231;54;19946;-79
2023/03/08 03:23:37;;;;;;;;;;;;;;;4.70;51.20;98351.31;1087288;54;19939;-80
2023/03/08 03:24:39;;;;;;;;;;;;;;;4.60;51.63;98355.84;1084882;54;19969;-79
2023/03/08 03:25:45;;;;;;;;;;;;;;;4.61;51.67;98360.16;1084436;39;20729;-79
2023/03/08 03:26:49;;;;;;;;;;;;;;;4.76;51.05;98352.56;1083911;54;19947;-78
2023/03/08 03:27:53;;;;;;;;;;;;;;;4.74;51.00;98355.31;1084670;54;19965;-77
2023/03/08 03:28:55;;;;;;;;;;;;;;;4.81;51.06;98352.94;1084748;54;19951;-78
2023/03/08 03:29:58;;;;;;;;;;;;;;;4.74;51.31;98349.22;1084297;54;19946;-77
2023/03/08 03:30:59;;;;;;;;;;;;;;;4.79;51.10;98350.44;1085439;54;19953;-78
2023/03/08 03:32:06;;;;;;;;;;;;;;;4.80;51.21;98351.25;1085251;54;19947;-82
2023/03/08 03:33:11;;;;;;;;;;;;;;;4.78;51.28;98350.56;1085985;54;19957;-80
2023/03/08 03:34:15;;;;;;;;;;;;;;;4.82;50.82;98347.47;1087588;54;19949;-82
2023/03/08 03:35:18;;;;;;;;;;;;;;;4.81;50.83;98345.84;1086154;54;19968;-80
2023/03/08 03:36:23;;;;;;;;;;;;;;;4.87;50.86;98340.91;1085581;54;20492;-79
2023/03/08 03:37:24;;;;;;;;;;;;;;;4.83;50.80;98333.25;1084261;54;19946;-78
2023/03/08 03:38:28;;;;;;;;;;;;;;;4.86;50.92;98341.88;1083767;54;19951;-78
2023/03/08 03:39:32;;;;;;;;;;;;;;;4.80;51.08;98341.50;1083629;54;19977;-78
2023/03/08 03:40:36;;;;;;;;;;;;;;;4.78;51.22;98339.97;1083777;54;19950;-79
2023/03/08 03:41:40;;;;;;;;;;;;;;;4.78;51.07;98334.69;1084263;54;19962;-78
2023/03/08 03:42:44;;;;;;;;;;;;;;;4.78;51.31;98340.81;1083824;54;19965;-79
2023/03/08 03:43:45;;;;;;;;;;;;;;;4.81;51.35;98335.25;1084263;54;19953;-78
2023/03/08 03:44:55;;;;;;;;;;;;;;;4.75;51.54;98335.81;1085431;54;19947;-80
2023/03/08 03:45:57;;;;;;;;;;;;;;;4.66;51.65;98336.72;1086173;46;19954;-78
2023/03/08 03:47:00;;;;;;;;;;;;;;;4.75;51.57;98330.53;1086565;46;19953;-79
2023/03/08 03:48:01;;;;;;;;;;;;;;;4.74;51.51;98336.78;1085838;54;19986;-80
2023/03/08 03:49:05;;;;;;;;;;;;;;;4.73;51.76;98339.59;1086119;54;19973;-80
2023/03/08 03:50:08;;;;;;;;;;;;;;;4.76;51.55;98332.19;1086584;54;20433;-80
2023/03/08 03:51:13;;;;;;;;;;;;;;;4.78;51.35;98332.03;1086186;54;19962;-79
2023/03/08 03:52:14;;;;;;;;;;;;;;;4.75;51.85;98337.66;1086249;46;19969;-79
2023/03/08 03:53:17;;;;;;;;;;;;;;;4.71;52.05;98334.47;1085568;54;19958;-80
2023/03/08 03:54:18;;;;;;;;;;;;;;;4.79;51.71;98331.06;1083903;54;19977;-79
2023/03/08 03:55:22;;;;;;;;;;;;;;;4.83;51.62;98327.94;1083823;54;19947;-78
2023/03/08 03:56:24;;;;;;;;;;;;;;;4.77;51.64;98323.28;1083635;54;19981;-78
2023/03/08 03:57:31;;;;;;;;;;;;;;;4.73;51.86;98327.19;1083473;54;19946;-79
2023/03/08 03:58:32;;;;;;;;;;;;;;;4.73;51.76;98321.88;1083654;54;20038;-79
2023/03/08 03:59:36;;;;;;;;;;;;;;;4.80;51.81;98319.47;1083896;54;20401;-78
2023/03/08 04:00:37;;;;;;;;;;;;;;;4.86;51.43;98316.25;1083660;54;19951;-80
2023/03/08 04:01:40;;;;;;;;;;;;;;;4.86;51.51;98320.69;1083626;54;20026;-79
2023/03/08 04:02:41;;;;;;;;;;;;;;;4.76;51.85;98320.78;1083545;54;19950;-78
2023/03/08 04:03:46;;;;;;;;;;;;;;;4.84;51.72;98324.31;1083965;39;20337;-79
2023/03/08 04:04:47;;;;;;;;;;;;;;;4.91;51.35;98323.75;1083646;54;19962;-79
2023/03/08 04:05:51;;;;;;;;;;;;;;;4.91;51.54;98315.81;1083853;54;19972;-78
2023/03/08 04:06:52;;;;;;;;;;;;;;;4.82;51.92;98328.13;1083542;54;19955;-79
2023/03/08 04:07:56;;;;;;;;;;;;;;;4.67;52.03;98311.91;1083576;54;19946;-79
2023/03/08 04:08:58;;;;;;;;;;;;;;;4.75;52.07;98321.75;1083482;54;20598;-80
2023/03/08 04:10:02;;;;;;;;;;;;;;;4.78;51.94;98309.06;1083675;54;19946;-79
2023/03/08 04:11:03;;;;;;;;;;;;;;;4.81;52.09;98313.22;1083385;54;19953;-81
2023/03/08 04:12:07;;;;;;;;;;;;;;;4.78;51.85;98298.47;1083854;54;19950;-78
2023/03/08 04:13:11;;;;;;;;;;;;;;;4.80;51.75;98312.38;1083960;54;19970;-79
2023/03/08 04:14:16;;;;;;;;;;;;;;;4.77;51.98;98302.09;1083427;54;19946;-78
2023/03/08 04:15:17;;;;;;;;;;;;;;;4.83;51.91;98293.53;1083742;54;19969;-77
2023/03/08 04:16:21;;;;;;;;;;;;;;;4.91;51.72;98297.25;1083760;54;20065;-78
2023/03/08 04:17:22;;;;;;;;;;;;;;;4.99;51.41;98289.38;1083931;39;20431;-79
2023/03/08 04:18:26;;;;;;;;;;;;;;;5.02;51.41;98283.78;1084240;39;20378;-79
2023/03/08 04:19:27;;;;;;;;;;;;;;;5.02;51.37;98281.13;1084549;54;19973;-78
2023/03/08 04:20:31;;;;;;;;;;;;;;;4.96;51.50;98279.91;1084732;54;19950;-78
2023/03/08 04:21:32;;;;;;;;;;;;;;;5.02;51.22;98281.13;1084104;54;19962;-79
2023/03/08 04:22:36;;;;;;;;;;;;;;;5.04;51.14;98283.63;1083734;54;19946;-78
2023/03/08 04:23:37;;;;;;;;;;;;;;;5.10;51.23;98277.72;1083450;54;20042;-78
2023/03/08 04:24:41;;;;;;;;;;;;;;;5.13;50.88;98278.25;1083471;54;19950;-78
2023/03/08 04:25:42;;;;;;;;;;;;;;;5.06;51.13;98274.53;1083744;31;20445;-78
2023/03/08 04:26:46;;;;;;;;;;;;;;;5.04;50.93;98287.09;1083775;46;19962;-80
2023/03/08 04:27:47;;;;;;;;;;;;;;;5.08;51.15;98287.63;1084274;39;20710;-79
2023/03/08 04:28:53;;;;;;;;;;;;;;;5.00;51.27;98285.75;1083126;54;19947;-78
2023/03/08 04:29:54;;;;;;;;;;;;;;;4.97;51.48;98286.06;1083192;47;20451;-79
2023/03/08 04:30:58;;;;;;;;;;;;;;;4.92;51.46;98283.00;1083367;54;19946;-79
2023/03/08 04:31:59;;;;;;;;;;;;;;;4.88;51.84;98282.50;1083524;54;19946;-78
2023/03/08 04:33:03;;;;;;;;;;;;;;;4.90;51.68;98279.72;1083518;54;20428;-78
2023/03/08 04:34:04;;;;;;;;;;;;;;;4.84;51.86;98281.97;1083674;54;19946;-79
2023/03/08 04:35:08;;;;;;;;;;;;;;;4.80;51.99;98283.28;1083804;39;20301;-78
2023/03/08 04:36:09;;;;;;;;;;;;;;;4.75;52.04;98282.88;1083283;54;19981;-78
2023/03/08 04:37:13;;;;;;;;;;;;;;;4.81;52.12;98278.78;1083966;39;20392;-79
2023/03/08 04:38:14;;;;;;;;;;;;;;;4.80;51.98;98279.78;1083572;54;19950;-78
2023/03/08 04:39:18;;;;;;;;;;;;;;;4.74;52.11;98270.63;1083492;54;19951;-78
2023/03/08 04:40:19;;;;;;;;;;;;;;;4.75;52.22;98276.75;1083362;54;19981;-77
2023/03/08 04:41:23;;;;;;;;;;;;;;;4.76;52.43;98284.53;1083568;54;19962;-77
2023/03/08 04:42:24;;;;;;;;;;;;;;;4.78;52.19;98279.94;1083444;54;19970;-78
2023/03/08 04:43:28;;;;;;;;;;;;;;;4.77;52.12;98278.25;1083589;54;20255;-78
2023/03/08 04:44:32;;;;;;;;;;;;;;;4.76;52.50;98275.78;1083696;46;19977;-77
2023/03/08 04:45:35;;;;;;;;;;;;;;;4.75;52.49;98274.09;1083565;54;19946;-78
2023/03/08 04:46:36;;;;;;;;;;;;;;;4.75;52.29;98280.22;1083424;54;19981;-79
2023/03/08 04:47:40;;;;;;;;;;;;;;;4.72;52.13;98271.75;1083406;54;19973;-78
2023/03/08 04:48:41;;;;;;;;;;;;;;;4.69;52.56;98276.34;1083184;47;20445;-77
2023/03/08 04:49:45;;;;;;;;;;;;;;;4.77;52.16;98272.97;1083346;54;19951;-79
2023/03/08 04:50:51;;;;;;;;;;;;;;;4.69;52.47;98270.25;1084425;31;20532;-79
2023/03/08 04:51:54;;;;;;;;;;;;;;;4.60;52.80;98284.38;1083480;54;19946;-78
2023/03/08 04:52:55;;;;;;;;;;;;;;;4.62;52.79;98275.31;1083415;54;20085;-79
2023/03/08 04:53:59;;;;;;;;;;;;;;;4.67;52.46;98258.97;1083709;54;19947;-79
2023/03/08 04:55:00;;;;;;;;;;;;;;;4.65;52.42;98263.56;1083286;54;19962;-79
2023/03/08 04:56:04;;;;;;;;;;;;;;;4.76;52.41;98257.25;1083835;54;19989;-77
2023/03/08 04:57:05;;;;;;;;;;;;;;;4.76;52.31;98251.94;1083841;54;19946;-78
2023/03/08 04:58:09;;;;;;;;;;;;;;;4.83;51.96;98251.16;1084088;47;19951;-79
2023/03/08 04:59:10;;;;;;;;;;;;;;;4.86;51.93;98242.13;1083880;54;19946;-79
2023/03/08 05:00:17;;;;;;;;;;;;;;;4.92;51.50;98245.94;1084280;39;20388;-78
2023/03/08 05:01:19;;;;;;;;;;;;;;;4.93;51.42;98242.31;1084359;54;19947;-78
2023/03/08 05:02:23;;;;;;;;;;;;;;;4.89;51.31;98239.13;1083858;54;19946;-78
2023/03/08 05:03:24;;;;;;;;;;;;;;;4.96;51.34;98236.72;1084052;54;19947;-79
2023/03/08 05:04:28;;;;;;;;;;;;;;;4.99;51.34;98233.78;1083698;54;19977;-78
2023/03/08 05:05:29;;;;;;;;;;;;;;;4.97;51.31;98227.78;1085585;31;20449;-78
2023/03/08 05:06:33;;;;;;;;;;;;;;;5.00;50.91;98238.91;1083405;54;20430;-78
2023/03/08 05:07:34;;;;;;;;;;;;;;;4.99;51.05;98237.25;1083350;54;19946;-78
2023/03/08 05:08:38;;;;;;;;;;;;;;;4.97;50.89;98238.38;1083981;39;20398;-78
2023/03/08 05:09:39;;;;;;;;;;;;;;;4.95;50.90;98237.69;1084594;54;20477;-78
2023/03/08 05:10:48;;;;;;;;;;;;;;;4.99;51.16;98231.13;1083299;46;19954;-78
2023/03/08 05:11:51;;;;;;;;;;;;;;;5.02;50.78;98232.63;1083295;54;19973;-80
2023/03/08 05:12:53;;;;;;;;;;;;;;;5.06;50.98;98226.03;1084554;54;19957;-79
2023/03/08 05:13:57;;;;;;;;;;;;;;;5.06;50.89;98226.03;1083822;54;19946;-79
2023/03/08 05:14:58;;;;;;;;;;;;;;;5.06;50.78;98221.56;1083751;54;19954;-78
2023/03/08 05:16:04;;;;;;;;;;;;;;;5.15;50.58;98215.34;1083978;54;19950;-79
2023/03/08 05:17:06;;;;;;;;;;;;;;;5.18;50.56;98223.97;1084362;54;19954;-80
2023/03/08 05:18:10;;;;;;;;;;;;;;;5.20;50.40;98219.34;1085065;54;19939;-80
2023/03/08 05:19:11;;;;;;;;;;;;;;;5.24;50.42;98218.03;1084591;54;19974;-79
2023/03/08 05:20:15;;;;;;;;;;;;;;;5.23;50.37;98221.69;1084860;54;19958;-80
2023/03/08 05:21:17;;;;;;;;;;;;;;;5.20;50.39;98214.88;1084155;54;19945;-79
2023/03/08 05:22:21;;;;;;;;;;;;;;;5.24;50.23;98210.91;1084962;31;20417;-79
2023/03/08 05:23:22;;;;;;;;;;;;;;;5.25;50.32;98211.75;1083369;54;19958;-80
2023/03/08 05:24:26;;;;;;;;;;;;;;;5.19;50.17;98210.56;1083530;54;19973;-79
2023/03/08 05:25:27;;;;;;;;;;;;;;;5.11;50.39;98213.97;1083337;54;19958;-78
2023/03/08 05:26:31;;;;;;;;;;;;;;;5.14;50.58;98211.03;1083794;47;19954;-78
2023/03/08 05:27:32;;;;;;;;;;;;;;;5.15;50.49;98212.69;1083663;54;19953;-81
2023/03/08 05:28:36;;;;;;;;;;;;;;;5.08;50.44;98216.09;1083774;54;19946;-79
2023/03/08 05:29:38;;;;;;;;;;;;;;;5.13;50.39;98227.09;1084056;54;20010;-79
2023/03/08 05:30:41;;;;;;;;;;;;;;;5.14;50.36;98221.63;1083537;54;19953;-79
2023/03/08 05:31:45;;;;;;;;;;;;;;;5.14;50.54;98216.34;1084153;39;20439;-78
2023/03/08 05:32:49;;;;;;;;;;;;;;;5.12;50.54;98210.34;1084051;47;19997;-79
2023/03/08 05:33:50;;;;;;;;;;;;;;;5.15;50.44;98214.50;1083899;54;19950;-79
2023/03/08 05:34:54;;;;;;;;;;;;;;;5.13;50.29;98209.38;1083502;54;19951;-78
2023/03/08 05:35:55;;;;;;;;;;;;;;;5.14;50.49;98216.34;1083734;54;19981;-78
2023/03/08 05:37:00;;;;;;;;;;;;;;;5.11;50.37;98218.47;1083273;54;20057;-78
2023/03/08 05:38:01;;;;;;;;;;;;;;;5.12;50.59;98218.28;1083573;54;19969;-79
2023/03/08 05:39:05;;;;;;;;;;;;;;;5.11;50.48;98223.75;1083841;47;19950;-79
2023/03/08 05:40:07;;;;;;;;;;;;;;;5.12;50.29;98210.34;1084074;54;20527;-80
2023/03/08 05:41:13;;;;;;;;;;;;;;;4.99;50.68;98220.53;1083988;39;20013;-80